Latest Coastal Weather Observations for Merimbula

IDN60701

Issued at 3:55 pm EST Saturday 20 September 2014 (issued every 10 minutes, with the page automatically refreshed every 10 minutes)

About coastal observations | Map of coastal stations | Coastal observations for NSW | Marine services | Other Formats
Station Details ID: 069147 Name: MERIMBULA AIRPORT AWS Lat: -36.91 Lon: 149.90 Height: 1.5 m
Data from the previous 72 hours. | See also: Recent months at Merimbula
Date/Time
EST
Temp

°C
Wind Pressure Rain
since 9am
mm
Weather Cloud Vis
km
Sea
Height
m
Swell
Dir
 
Speed
knots
Gust
knots
hPa Trend Height
m
Period
s
Dir
20/03:30pm 17.8 S 11 17 1024.2 - 0.0 - - 10 - - - -
20/03:00pm 17.6 SSW 12 19 1024.1 - 0.0 - Mostly cloudy 10 - - - -
20/02:30pm 17.7 SSW 7 11 1023.8 - 0.0 - Partly cloudy 10 - - - -
20/02:00pm 18.8 SSW 9 15 1023.7 - 0.0 - Partly cloudy 10 - - - -
20/01:30pm 19.5 SW 9 15 1023.8 - 0.0 - Partly cloudy 10 - - - -
20/01:00pm 19.9 SW 10 17 1023.8 - 0.0 - Partly cloudy 10 - - - -
20/12:30pm 19.0 WSW 9 16 1024.0 - 0.0 - Partly cloudy 10 - - - -
20/12:00pm 18.4 WSW 10 18 1024.1 - 0.0 - Mostly clear 10 - - - -
20/11:30am 16.7 SSW 10 15 1024.4 - 0.0 - Partly cloudy 10 - - - -
20/11:00am 17.3 SSW 10 14 1024.4 - 0.0 - Partly cloudy 10 - - - -
20/10:30am 17.5 SSW 9 14 1024.4 - 0.0 - Partly cloudy 10 - - - -
20/10:00am 17.7 WSW 9 15 1024.4 - 0.0 - - 10 - - - -
20/09:30am 16.7 WSW 8 18 1024.5 - 0.0 - - 10 - - - -
20/09:00am 15.7 SW 10 15 1024.5 - 0.0 - - 10 - - - -
20/08:30am 15.2 SW 8 14 1024.3 - 0.0 - - 10 - - - -
20/08:00am 14.4 W 5 9 1024.0 - 0.0 - - 10 - - - -
20/07:30am 13.3 WNW 7 11 1024.0 - 0.0 - - 10 - - - -
20/07:00am 11.9 WNW 7 11 1023.8 - 0.0 - - 10 - - - -
20/06:30am 10.2 WNW 7 11 1023.5 - 0.0 - - 10 - - - -
20/06:00am 8.7 WNW 7 11 1023.2 - 0.0 - Mostly clear 10 - - - -
20/05:30am 8.2 WNW 7 10 1023.0 - 0.0 - - 10 - - - -
20/05:00am 6.7 WNW 6 8 1022.8 - 0.0 - - 10 - - - -
20/04:30am 6.4 N 1 5 1022.5 - 0.0 - - 10 - - - -
20/04:00am 5.2 WNW 3 7 1022.3 - 0.0 - - 10 - - - -
20/03:30am 5.5 CALM 0 0 1022.1 - 0.0 - - 10 - - - -
20/03:00am 5.8 CALM 0 0 1022.1 - 0.0 - - 10 - - - -
20/02:30am 5.0 CALM 0 0 1022.0 - 0.0 - - 10 - - - -
20/02:00am 5.0 CALM 0 0 1021.8 - 0.0 - - 10 - - - -
20/01:30am 5.2 CALM 0 0 1021.8 - 0.0 - - 10 - - - -
20/01:00am 5.7 CALM 0 0 1021.8 - 0.0 - - 10 - - - -
20/12:30am 5.7 CALM 0 3 1021.5 - 0.0 - - 10 - - - -
20/12:00am 6.3 SW 0 0 1021.4 - 0.0 - - 10 - - - -
 
Date/Time
EST
Temp

°C
Wind Pressure Rain
since 9am
mm
Weather Cloud Vis
km
Sea
Height
m
Swell
Dir
 
Speed
knots
Gust
knots
hPa Trend Height
m
Period
s
Dir
19/11:30pm 6.4 W 3 5 1021.2 - 0.0 - - 10 - - - -
19/11:00pm 6.3 CALM 0 0 1021.3 - 0.0 - - 10 - - - -
19/10:30pm 7.0 CALM 0 0 1021.3 - 0.0 - - 10 - - - -
19/10:00pm 6.7 CALM 0 0 1021.3 - 0.0 - - 10 - - - -
19/09:30pm 7.6 CALM 0 0 1021.3 - 0.0 - - 10 - - - -
19/09:00pm 8.5 CALM 0 4 1021.3 - 0.0 - - 10 - - - -
19/08:30pm 9.6 NW 4 6 1021.2 - 0.0 - - 10 - - - -
19/08:00pm 10.2 NW 1 6 1021.2 - 0.0 - - 10 - - - -
19/07:30pm 10.1 SSW 3 5 1020.9 - 0.0 - - 10 - - - -
19/07:00pm 11.2 SW 3 6 1020.6 - 0.0 - - 10 - - - -
19/06:30pm 13.2 SW 5 7 1020.2 - 0.0 - - 10 - - - -
19/06:00pm 14.2 SW 6 10 1019.9 - 0.0 - - 10 - - - -
19/05:30pm 15.0 SSW 8 14 1019.6 - 0.0 - - 10 - - - -
19/05:00pm 16.5 SSW 10 15 1019.3 - 0.0 - - 10 - - - -
19/04:30pm 17.2 SW 9 15 1019.0 - 0.0 - - 10 - - - -
19/04:00pm 17.6 SW 10 15 1018.7 - 0.0 - - 10 - - - -
19/03:30pm 18.0 SSW 10 15 1018.6 - 0.0 - - 10 - - - -
19/03:00pm 16.5 SW 11 17 1018.7 - 0.0 - - 10 - - - -
19/02:30pm 17.1 SW 10 16 1018.7 - 0.0 - Partly cloudy 10 - - - -
19/02:00pm 17.4 SW 9 15 1018.8 - 0.0 - - 10 - - - -
19/01:30pm 18.6 SW 8 14 1019.1 - 0.0 - Partly cloudy 10 - - - -
19/01:00pm 17.1 WSW 7 14 1019.3 - 0.0 - Partly cloudy 10 - - - -
19/12:30pm 17.2 SW 10 14 1019.6 - 0.0 - Partly cloudy 10 - - - -
19/12:00pm 17.9 W 11 18 1019.8 - 0.0 - Partly cloudy 10 - - - -
19/11:30am 17.1 SW 10 15 1020.2 - 0.0 - Partly cloudy 10 - - - -
19/11:00am 17.5 W 12 17 1020.5 - 0.0 - Partly cloudy 10 - - - -
19/10:30am 16.9 W 11 18 1020.6 - 0.0 - Partly cloudy 10 - - - -
19/10:00am 16.3 W 11 19 1020.8 - 0.0 - - 10 - - - -
19/09:30am 15.4 WSW 12 19 1020.8 - 0.0 - - 10 - - - -
19/09:00am 14.6 W 9 13 1021.0 - 0.0 - - 10 - - - -
19/08:30am 13.7 W 9 13 1021.2 - 0.0 - - 10 - - - -
19/08:00am 12.6 W 10 14 1021.0 - 0.0 - - 10 - - - -
19/07:30am 11.5 W 12 17 1021.1 - 0.0 - - 10 - - - -
19/07:00am 10.4 W 9 13 1021.1 - 0.0 - - 10 - - - -
19/06:30am 9.0 WNW 8 12 1021.0 - 0.0 - - 10 - - - -
19/06:00am 8.8 W 8 14 1021.0 - 0.0 - - 10 - - - -
19/05:30am 8.7 W 9 13 1020.5 - 0.0 - - 10 - - - -
19/05:00am 9.0 W 11 15 1020.4 - 0.0 - - 10 - - - -
19/04:30am 9.1 WSW 11 17 1020.1 - 0.0 - - 10 - - - -
19/04:00am 9.1 WSW 9 14 1020.2 - 0.0 - - 10 - - - -
19/03:30am 9.3 WSW 11 16 1019.8 - 0.0 - - 10 - - - -
19/03:00am 9.6 WSW 10 16 1019.9 - 0.0 - - 10 - - - -
19/02:30am 10.1 WSW 12 22 1020.0 - 0.0 - - 10 - - - -
19/02:00am 9.6 WSW 10 15 1020.0 - 0.0 - - 10 - - - -
19/01:30am 10.0 WSW 9 16 1020.2 - 0.0 - - 10 - - - -
19/01:00am 9.9 WSW 9 13 1020.3 - 0.0 - - 10 - - - -
19/12:30am 9.8 WSW 9 13 1020.4 - 0.0 - - 10 - - - -
19/12:00am 8.1 WSW 5 8 1020.6 - 0.0 - - 10 - - - -
 
Date/Time
EST
Temp

°C
Wind Pressure Rain
since 9am
mm
Weather Cloud Vis
km
Sea
Height
m
Swell
Dir
 
Speed
knots
Gust
knots
hPa Trend Height
m
Period
s
Dir
18/11:30pm 8.4 SW 5 6 1020.6 - 0.0 - - 10 - - - -
18/11:00pm 9.8 W 7 11 1020.6 - 0.0 - - 10 - - - -
18/10:30pm 8.2 WNW 7 9 1020.7 - 0.0 - - 10 - - - -
18/10:00pm 7.3 W 1 4 1020.7 - 0.0 - - 10 - - - -
18/09:30pm 8.0 CALM 0 0 1020.6 - 0.0 - - 10 - - - -
18/09:00pm 9.1 W 3 5 1020.6 - 0.0 - - 10 - - - -
18/08:30pm 10.4 W 5 8 1020.6 - 0.0 - - 10 - - - -
18/08:00pm 11.3 WSW 9 14 1020.6 - 0.0 - - 10 - - - -
18/07:30pm 11.0 WSW 5 8 1020.4 - 0.0 - Partly cloudy 10 - - - -
18/07:00pm 11.6 SSW 7 13 1020.2 - 0.0 - Partly cloudy 10 - - - -
18/06:30pm 11.7 SW 6 11 1020.0 - 0.0 - - 10 - - - -
18/06:00pm 11.9 SW 4 7 1019.5 - 0.0 - - 10 - - - -
18/05:30pm 13.3 SW 3 8 1019.2 - 0.0 - - 10 - - - -
18/05:00pm 14.4 SW 9 17 1018.6 - 0.0 - - 10 - - - -
18/04:30pm 15.3 SSW 9 15 1018.4 - 0.0 - Partly cloudy 10 - - - -
18/04:00pm 15.0 SSW 16 22 1017.9 - 0.0 - - 10 - - - -
18/03:30pm 15.2 SW 12 22 1017.5 - 0.0 - - 10 - - - -
18/03:00pm 15.2 SW 10 15 1017.2 - 0.0 - Partly cloudy 10 - - - -
18/02:30pm 14.9 SW 9 16 1017.2 - 0.0 - - 10 - - - -
18/02:00pm 15.6 SSW 9 14 1017.3 - 0.0 - Partly cloudy 10 - - - -
18/01:30pm 16.7 SW 11 17 1017.1 - 0.0 - Partly cloudy 10 - - - -
18/01:00pm 15.6 SW 11 19 1017.2 - 0.0 - Partly cloudy 10 - - - -
18/12:30pm 15.4 SW 8 16 1017.3 - 0.0 - Partly cloudy 10 - - - -
18/12:00pm 14.8 SW 13 21 1017.6 - 0.0 - Mostly clear 10 - - - -
18/11:30am 14.6 SW 12 19 1017.8 - 0.0 - Partly cloudy 10 - - - -
18/11:00am 14.7 W 9 15 1017.7 - 0.0 - Partly cloudy 10 - - - -
18/10:30am 14.5 SW 11 20 1017.8 - 0.0 - - 10 - - - -
18/10:00am 14.5 SW 11 21 1017.8 - 0.0 - - 10 - - - -
18/09:30am 13.9 SW 15 22 1017.7 - 0.0 - - 10 - - - -
18/09:00am 13.6 WSW 8 18 1017.3 - 3.4 - - 10 - - - -
18/08:30am 13.0 WSW 11 16 1017.2 - 3.4 - - 10 - - - -
18/08:00am 12.5 WSW 8 14 1016.9 - 3.4 - Partly cloudy 10 - - - -
18/07:30am 11.9 W 6 11 1016.6 - 3.4 - Partly cloudy 10 - - - -
18/07:00am 11.0 WSW 7 13 1016.5 - 3.4 - - 10 - - - -
18/06:30am 9.9 W 6 19 1015.9 - 3.4 - Partly cloudy 10 - - - -
18/06:00am 9.0 W 6 10 1015.5 - 3.4 - - 10 - - - -
18/05:30am 9.2 W 7 14 1015.1 - 3.4 - - 10 - - - -
18/05:00am 8.6 W 8 12 1014.8 - 3.4 - - 10 - - - -
18/04:30am 8.6 W 7 11 1014.7 - 3.4 - Partly cloudy 10 - - - -
18/04:00am 8.5 W 9 11 1014.5 - 3.4 - - 10 - - - -
18/03:30am 8.5 W 9 13 1014.4 - 3.4 - - 10 - - - -
18/03:00am 8.5 W 10 15 1014.4 - 3.4 - - 10 - - - -
18/02:30am 8.3 W 9 12 1014.4 - 3.4 - - 10 - - - -
18/02:00am 8.3 W 9 13 1014.4 - 3.4 - - 10 - - - -
18/01:30am 8.6 W 9 14 1014.7 - 3.4 - - 10 - - - -
18/01:00am 8.5 W 9 11 1014.9 - 3.4 - - 10 - - - -
18/12:30am 9.2 W 11 15 1015.0 - 3.4 - - 10 - - - -
18/12:00am 8.8 WSW 8 11 1015.0 - 3.4 - - 10 - - - -
 
Date/Time
EST
Temp

°C
Wind Pressure Rain
since 9am
mm
Weather Cloud Vis
km
Sea
Height
m
Swell
Dir
 
Speed
knots
Gust
knots
hPa Trend Height
m
Period
s
Dir
17/11:30pm 9.3 WSW 9 16 1014.9 - 3.4 - - 10 - - - -
17/11:00pm 9.5 W 12 17 1014.7 - 3.4 - - 10 - - - -
17/10:30pm 9.8 W 13 19 1014.3 - 3.4 - Partly cloudy 10 - - - -
17/10:00pm 9.7 WSW 12 19 1014.1 - 3.4 - Partly cloudy 10 - - - -
17/09:30pm 9.6 WSW 12 21 1014.0 - 3.4 - - 10 - - - -
17/09:00pm 10.2 WSW 14 21 1013.6 - 3.4 - Cloudy 10 - - - -
17/08:30pm 9.8 SW 15 24 1013.2 - 3.4 - Partly cloudy 10 - - - -
17/08:22pm 9.8 SW 15 24 1013.1 - 3.4 - Partly cloudy 10 - - - -
17/08:00pm 10.0 SW 10 14 1012.8 - 3.4 - Partly cloudy 10 - - - -
17/07:30pm 10.5 SW 14 19 1012.0 - 3.0 - Partly cloudy 10 - - - -
17/07:07pm 10.9 SW 4 9 1011.7 - 3.0 - Partly cloudy 8 - - - -
17/07:00pm 11.0 SSW 5 7 1011.6 - 3.0 - Partly cloudy 6 - - - -
17/06:45pm 11.7 SSW 11 17 1011.3 - 1.6 - Partly cloudy 5 - - - -
17/06:30pm 12.9 S 8 14 1010.6 - 0.8 - Cloudy 10 - - - -
17/06:00pm 12.9 ENE 1 7 1010.3 - 0.8 - Cloudy 10 - - - -
17/05:30pm 13.1 CALM 0 1 1010.0 - 0.8 - Partly cloudy 10 - - - -
17/05:00pm 14.1 E 4 6 1009.3 - 0.8 - Partly cloudy 10 - - - -
17/04:30pm 15.0 ESE 4 6 1009.2 - 0.6 - Partly cloudy 10 - - - -
17/04:00pm 15.3 E 7 10 1008.6 - 0.2 - Partly cloudy 10 - - - -

Other Formats:

Comma delimited format used in spreadsheet applications
http://www.bom.gov.au/fwo/IDN60701/IDN60701.95929.axf

JavaScript Object Notation format (JSON) in row-major order
http://www.bom.gov.au/fwo/IDN60701/IDN60701.95929.json